sensor_id;sensor_type;location;lat;lon;timestamp;temperature;humidity
7388;DHT22;3735;50.136;11.062;2023-02-10T00:01:29;-7.30;99.90
7388;DHT22;3735;50.136;11.062;2023-02-10T00:03:56;-7.30;99.90
7388;DHT22;3735;50.136;11.062;2023-02-10T00:06:24;-7.30;99.90
7388;DHT22;3735;50.136;11.062;2023-02-10T00:08:54;-7.40;99.90
7388;DHT22;3735;50.136;11.062;2023-02-10T00:11:23;-7.40;99.90
7388;DHT22;3735;50.136;11.062;2023-02-10T00:14:11;-7.40;99.90
7388;DHT22;3735;50.136;11.062;2023-02-10T00:16:38;-7.40;99.90
7388;DHT22;3735;50.136;11.062;2023-02-10T00:19:04;-7.50;99.90
7388;DHT22;3735;50.136;11.062;2023-02-10T00:21:31;-7.50;99.90
7388;DHT22;3735;50.136;11.062;2023-02-10T00:23:56;-7.50;99.90
7388;DHT22;3735;50.136;11.062;2023-02-10T00:26:22;-7.40;99.90
7388;DHT22;3735;50.136;11.062;2023-02-10T00:28:48;-7.40;99.90
7388;DHT22;3735;50.136;11.062;2023-02-10T00:31:15;-7.40;99.90
7388;DHT22;3735;50.136;11.062;2023-02-10T00:33:44;-7.50;99.90
7388;DHT22;3735;50.136;11.062;2023-02-10T00:36:13;-7.50;99.90
7388;DHT22;3735;50.136;11.062;2023-02-10T00:38:41;-7.50;99.90
7388;DHT22;3735;50.136;11.062;2023-02-10T00:41:12;-7.50;99.90
7388;DHT22;3735;50.136;11.062;2023-02-10T00:43:43;-7.60;99.90
7388;DHT22;3735;50.136;11.062;2023-02-10T00:46:10;-7.60;99.90
7388;DHT22;3735;50.136;11.062;2023-02-10T00:48:37;-7.60;99.90
7388;DHT22;3735;50.136;11.062;2023-02-10T00:51:03;-7.60;99.90
7388;DHT22;3735;50.136;11.062;2023-02-10T00:53:30;-7.60;99.90
7388;DHT22;3735;50.136;11.062;2023-02-10T00:55:56;-7.70;99.90
7388;DHT22;3735;50.136;11.062;2023-02-10T00:58:23;-7.70;99.90
7388;DHT22;3735;50.136;11.062;2023-02-10T01:00:49;-7.80;99.90
7388;DHT22;3735;50.136;11.062;2023-02-10T01:03:15;-7.80;99.90
7388;DHT22;3735;50.136;11.062;2023-02-10T01:05:41;-7.80;99.90
7388;DHT22;3735;50.136;11.062;2023-02-10T01:08:07;-7.90;99.90
7388;DHT22;3735;50.136;11.062;2023-02-10T01:10:34;-7.80;99.90
7388;DHT22;3735;50.136;11.062;2023-02-10T01:13:01;-7.90;99.90
7388;DHT22;3735;50.136;11.062;2023-02-10T01:15:28;-7.90;99.90
7388;DHT22;3735;50.136;11.062;2023-02-10T01:17:54;-7.90;99.90
7388;DHT22;3735;50.136;11.062;2023-02-10T01:20:20;-7.90;99.90
7388;DHT22;3735;50.136;11.062;2023-02-10T01:22:45;-7.90;99.90
7388;DHT22;3735;50.136;11.062;2023-02-10T01:25:11;-7.90;99.90
7388;DHT22;3735;50.136;11.062;2023-02-10T01:27:37;-7.80;99.90
7388;DHT22;3735;50.136;11.062;2023-02-10T01:30:03;-7.80;99.90
7388;DHT22;3735;50.136;11.062;2023-02-10T01:32:29;-7.90;99.90
7388;DHT22;3735;50.136;11.062;2023-02-10T01:34:55;-8.00;99.90
7388;DHT22;3735;50.136;11.062;2023-02-10T01:37:21;-8.00;99.90
7388;DHT22;3735;50.136;11.062;2023-02-10T01:39:47;-8.00;99.90
7388;DHT22;3735;50.136;11.062;2023-02-10T01:42:14;-8.00;99.90
7388;DHT22;3735;50.136;11.062;2023-02-10T01:47:07;-8.10;99.90
7388;DHT22;3735;50.136;11.062;2023-02-10T01:49:38;-8.10;99.90
7388;DHT22;3735;50.136;11.062;2023-02-10T01:52:21;-8.20;99.90
7388;DHT22;3735;50.136;11.062;2023-02-10T01:57:20;-8.20;99.90
7388;DHT22;3735;50.136;11.062;2023-02-10T01:59:46;-8.20;99.90
7388;DHT22;3735;50.136;11.062;2023-02-10T02:02:14;-8.20;99.90
7388;DHT22;3735;50.136;11.062;2023-02-10T02:04:54;-8.20;99.90
7388;DHT22;3735;50.136;11.062;2023-02-10T02:07:28;-8.20;99.90
7388;DHT22;3735;50.136;11.062;2023-02-10T02:09:57;-8.30;99.90
7388;DHT22;3735;50.136;11.062;2023-02-10T02:12:55;-8.30;99.90
7388;DHT22;3735;50.136;11.062;2023-02-10T02:21:26;-8.40;99.90
7388;DHT22;3735;50.136;11.062;2023-02-10T02:29:48;-8.40;99.90
7388;DHT22;3735;50.136;11.062;2023-02-10T02:32:22;-8.40;99.90
7388;DHT22;3735;50.136;11.062;2023-02-10T02:35:31;-8.50;99.90
7388;DHT22;3735;50.136;11.062;2023-02-10T02:37:52;-8.50;99.90
7388;DHT22;3735;50.136;11.062;2023-02-10T02:40:20;-8.50;99.90
7388;DHT22;3735;50.136;11.062;2023-02-10T02:42:48;-8.50;99.90
7388;DHT22;3735;50.136;11.062;2023-02-10T02:48:19;-8.50;99.90
7388;DHT22;3735;50.136;11.062;2023-02-10T02:53:37;-8.50;99.90
7388;DHT22;3735;50.136;11.062;2023-02-10T03:01:41;-8.30;99.90
7388;DHT22;3735;50.136;11.062;2023-02-10T03:04:15;-8.30;99.90
7388;DHT22;3735;50.136;11.062;2023-02-10T03:06:41;-8.30;99.90
7388;DHT22;3735;50.136;11.062;2023-02-10T03:09:08;-8.30;99.90
7388;DHT22;3735;50.136;11.062;2023-02-10T03:11:34;-8.30;99.90
7388;DHT22;3735;50.136;11.062;2023-02-10T03:14:00;-8.40;99.90
7388;DHT22;3735;50.136;11.062;2023-02-10T03:16:26;-8.40;99.90
7388;DHT22;3735;50.136;11.062;2023-02-10T03:18:52;-8.40;99.90
7388;DHT22;3735;50.136;11.062;2023-02-10T03:21:18;-8.40;99.90
7388;DHT22;3735;50.136;11.062;2023-02-10T03:23:43;-8.40;99.90
7388;DHT22;3735;50.136;11.062;2023-02-10T03:26:09;-8.40;99.90
7388;DHT22;3735;50.136;11.062;2023-02-10T03:28:35;-8.40;99.90
7388;DHT22;3735;50.136;11.062;2023-02-10T03:31:03;-8.40;99.90
7388;DHT22;3735;50.136;11.062;2023-02-10T03:33:31;-8.40;99.90
7388;DHT22;3735;50.136;11.062;2023-02-10T03:35:57;-8.40;99.90
7388;DHT22;3735;50.136;11.062;2023-02-10T03:38:25;-8.50;99.90
7388;DHT22;3735;50.136;11.062;2023-02-10T03:40:52;-8.50;99.90
7388;DHT22;3735;50.136;11.062;2023-02-10T03:43:19;-8.50;99.90
7388;DHT22;3735;50.136;11.062;2023-02-10T03:45:46;-8.50;99.90
7388;DHT22;3735;50.136;11.062;2023-02-10T03:48:12;-8.50;99.90
7388;DHT22;3735;50.136;11.062;2023-02-10T03:50:38;-8.40;99.90
7388;DHT22;3735;50.136;11.062;2023-02-10T03:53:05;-8.50;99.90
7388;DHT22;3735;50.136;11.062;2023-02-10T03:55:31;-8.50;99.90
7388;DHT22;3735;50.136;11.062;2023-02-10T03:57:57;-8.40;99.90
7388;DHT22;3735;50.136;11.062;2023-02-10T04:00:23;-8.40;99.90
7388;DHT22;3735;50.136;11.062;2023-02-10T04:02:48;-8.40;99.90
7388;DHT22;3735;50.136;11.062;2023-02-10T04:05:14;-8.30;99.90
7388;DHT22;3735;50.136;11.062;2023-02-10T04:07:40;-8.30;99.90
7388;DHT22;3735;50.136;11.062;2023-02-10T04:10:07;-8.20;99.90
7388;DHT22;3735;50.136;11.062;2023-02-10T04:12:33;-8.20;99.90
7388;DHT22;3735;50.136;11.062;2023-02-10T04:14:59;-8.20;99.90
7388;DHT22;3735;50.136;11.062;2023-02-10T04:17:25;-8.20;99.90
7388;DHT22;3735;50.136;11.062;2023-02-10T04:19:51;-8.20;99.90
7388;DHT22;3735;50.136;11.062;2023-02-10T04:22:17;-8.20;99.90
7388;DHT22;3735;50.136;11.062;2023-02-10T04:24:43;-8.20;99.90
7388;DHT22;3735;50.136;11.062;2023-02-10T04:27:08;-8.30;99.90
7388;DHT22;3735;50.136;11.062;2023-02-10T04:29:37;-8.20;99.90
7388;DHT22;3735;50.136;11.062;2023-02-10T04:32:05;-8.30;99.90
7388;DHT22;3735;50.136;11.062;2023-02-10T04:34:32;-8.30;99.90
7388;DHT22;3735;50.136;11.062;2023-02-10T04:36:58;-8.30;99.90
7388;DHT22;3735;50.136;11.062;2023-02-10T04:39:24;-8.30;99.90
7388;DHT22;3735;50.136;11.062;2023-02-10T04:41:49;-8.40;99.90
7388;DHT22;3735;50.136;11.062;2023-02-10T04:44:16;-8.40;99.90
7388;DHT22;3735;50.136;11.062;2023-02-10T04:46:42;-8.40;99.90
7388;DHT22;3735;50.136;11.062;2023-02-10T04:49:07;-8.40;99.90
7388;DHT22;3735;50.136;11.062;2023-02-10T04:51:33;-8.40;99.90
7388;DHT22;3735;50.136;11.062;2023-02-10T04:53:59;-8.30;99.90
7388;DHT22;3735;50.136;11.062;2023-02-10T04:56:25;-8.20;99.90
7388;DHT22;3735;50.136;11.062;2023-02-10T04:58:50;-8.20;99.90
7388;DHT22;3735;50.136;11.062;2023-02-10T05:01:19;-8.10;99.90
7388;DHT22;3735;50.136;11.062;2023-02-10T05:03:45;-8.00;99.90
7388;DHT22;3735;50.136;11.062;2023-02-10T05:06:13;-7.80;99.90
7388;DHT22;3735;50.136;11.062;2023-02-10T05:08:40;-7.60;99.90
7388;DHT22;3735;50.136;11.062;2023-02-10T05:11:11;-7.40;99.90
7388;DHT22;3735;50.136;11.062;2023-02-10T05:13:39;-7.30;99.90
7388;DHT22;3735;50.136;11.062;2023-02-10T05:16:06;-7.20;99.90
7388;DHT22;3735;50.136;11.062;2023-02-10T05:18:33;-7.10;99.90
7388;DHT22;3735;50.136;11.062;2023-02-10T05:21:00;-7.00;99.90
7388;DHT22;3735;50.136;11.062;2023-02-10T05:23:28;-6.90;99.90
7388;DHT22;3735;50.136;11.062;2023-02-10T05:25:54;-6.90;99.90
7388;DHT22;3735;50.136;11.062;2023-02-10T05:28:20;-6.80;99.90
7388;DHT22;3735;50.136;11.062;2023-02-10T05:30:47;-6.80;99.90
7388;DHT22;3735;50.136;11.062;2023-02-10T05:33:13;-6.70;99.90
7388;DHT22;3735;50.136;11.062;2023-02-10T05:35:39;-6.60;99.90
7388;DHT22;3735;50.136;11.062;2023-02-10T05:38:05;-6.60;99.90
7388;DHT22;3735;50.136;11.062;2023-02-10T05:40:31;-6.60;99.90
7388;DHT22;3735;50.136;11.062;2023-02-10T05:42:57;-6.60;99.90
7388;DHT22;3735;50.136;11.062;2023-02-10T05:45:23;-6.70;99.90
7388;DHT22;3735;50.136;11.062;2023-02-10T05:47:49;-6.70;99.90
7388;DHT22;3735;50.136;11.062;2023-02-10T05:50:17;-6.60;99.90
7388;DHT22;3735;50.136;11.062;2023-02-10T05:52:44;-6.60;99.90
7388;DHT22;3735;50.136;11.062;2023-02-10T05:55:10;-6.50;99.90
7388;DHT22;3735;50.136;11.062;2023-02-10T05:57:36;-6.30;99.90
7388;DHT22;3735;50.136;11.062;2023-02-10T06:00:05;-6.20;99.90
7388;DHT22;3735;50.136;11.062;2023-02-10T06:02:32;-6.10;99.90
7388;DHT22;3735;50.136;11.062;2023-02-10T06:04:58;-6.00;99.90
7388;DHT22;3735;50.136;11.062;2023-02-10T06:07:24;-5.90;99.90
7388;DHT22;3735;50.136;11.062;2023-02-10T06:09:50;-5.80;99.90
7388;DHT22;3735;50.136;11.062;2023-02-10T06:12:15;-5.70;99.90
7388;DHT22;3735;50.136;11.062;2023-02-10T06:14:44;-5.60;99.90
7388;DHT22;3735;50.136;11.062;2023-02-10T06:17:10;-5.60;99.90
7388;DHT22;3735;50.136;11.062;2023-02-10T06:19:36;-5.50;99.90
7388;DHT22;3735;50.136;11.062;2023-02-10T06:22:03;-5.50;99.90
7388;DHT22;3735;50.136;11.062;2023-02-10T06:24:31;-5.50;99.90
7388;DHT22;3735;50.136;11.062;2023-02-10T06:26:58;-5.40;99.90
7388;DHT22;3735;50.136;11.062;2023-02-10T06:29:24;-5.40;99.90
7388;DHT22;3735;50.136;11.062;2023-02-10T06:31:50;-5.30;99.90
7388;DHT22;3735;50.136;11.062;2023-02-10T06:34:16;-5.20;99.90
7388;DHT22;3735;50.136;11.062;2023-02-10T06:36:42;-5.20;99.90
7388;DHT22;3735;50.136;11.062;2023-02-10T06:39:08;-5.20;99.90
7388;DHT22;3735;50.136;11.062;2023-02-10T06:41:34;-5.20;99.90
7388;DHT22;3735;50.136;11.062;2023-02-10T06:43:59;-5.10;99.90
7388;DHT22;3735;50.136;11.062;2023-02-10T06:46:25;-5.00;99.90
7388;DHT22;3735;50.136;11.062;2023-02-10T06:48:52;-5.00;99.90
7388;DHT22;3735;50.136;11.062;2023-02-10T06:51:18;-4.90;99.90
7388;DHT22;3735;50.136;11.062;2023-02-10T06:53:44;-4.80;99.90
7388;DHT22;3735;50.136;11.062;2023-02-10T06:56:10;-4.80;99.90
7388;DHT22;3735;50.136;11.062;2023-02-10T06:58:37;-4.70;99.90
7388;DHT22;3735;50.136;11.062;2023-02-10T07:01:10;-4.70;99.90
7388;DHT22;3735;50.136;11.062;2023-02-10T07:03:39;-4.60;99.90
7388;DHT22;3735;50.136;11.062;2023-02-10T07:06:05;-4.60;99.90
7388;DHT22;3735;50.136;11.062;2023-02-10T07:08:31;-4.60;99.90
7388;DHT22;3735;50.136;11.062;2023-02-10T07:10:57;-4.50;99.90
7388;DHT22;3735;50.136;11.062;2023-02-10T07:13:23;-4.50;99.90
7388;DHT22;3735;50.136;11.062;2023-02-10T07:15:48;-4.40;99.90
7388;DHT22;3735;50.136;11.062;2023-02-10T07:18:14;-4.40;99.90
7388;DHT22;3735;50.136;11.062;2023-02-10T07:20:40;-4.40;99.90
7388;DHT22;3735;50.136;11.062;2023-02-10T07:23:06;-4.30;99.90
7388;DHT22;3735;50.136;11.062;2023-02-10T07:25:32;-4.30;99.90
7388;DHT22;3735;50.136;11.062;2023-02-10T07:27:58;-4.30;99.90
7388;DHT22;3735;50.136;11.062;2023-02-10T07:30:23;-4.20;99.90
7388;DHT22;3735;50.136;11.062;2023-02-10T07:32:50;-4.20;99.90
7388;DHT22;3735;50.136;11.062;2023-02-10T07:35:16;-4.10;99.90
7388;DHT22;3735;50.136;11.062;2023-02-10T07:37:42;-4.10;99.90
7388;DHT22;3735;50.136;11.062;2023-02-10T07:40:08;-4.00;99.90
7388;DHT22;3735;50.136;11.062;2023-02-10T07:42:35;-4.00;99.90
7388;DHT22;3735;50.136;11.062;2023-02-10T07:45:01;-3.90;99.90
7388;DHT22;3735;50.136;11.062;2023-02-10T07:47:27;-3.80;99.90
7388;DHT22;3735;50.136;11.062;2023-02-10T07:49:53;-3.70;99.90
7388;DHT22;3735;50.136;11.062;2023-02-10T07:52:21;-3.60;99.90
7388;DHT22;3735;50.136;11.062;2023-02-10T07:54:48;-3.50;99.90
7388;DHT22;3735;50.136;11.062;2023-02-10T07:57:14;-3.40;99.90
7388;DHT22;3735;50.136;11.062;2023-02-10T07:59:40;-3.30;99.90
7388;DHT22;3735;50.136;11.062;2023-02-10T08:02:08;-3.20;99.90
7388;DHT22;3735;50.136;11.062;2023-02-10T08:04:35;-3.10;99.90
7388;DHT22;3735;50.136;11.062;2023-02-10T08:07:01;-3.00;99.90
7388;DHT22;3735;50.136;11.062;2023-02-10T08:09:26;-2.80;99.90
7388;DHT22;3735;50.136;11.062;2023-02-10T08:11:52;-2.70;99.90
7388;DHT22;3735;50.136;11.062;2023-02-10T08:14:18;-2.60;99.90
7388;DHT22;3735;50.136;11.062;2023-02-10T08:16:44;-2.40;99.90
7388;DHT22;3735;50.136;11.062;2023-02-10T08:19:09;-2.30;99.90
7388;DHT22;3735;50.136;11.062;2023-02-10T08:21:35;-2.20;99.90
7388;DHT22;3735;50.136;11.062;2023-02-10T08:24:01;-2.20;99.90
7388;DHT22;3735;50.136;11.062;2023-02-10T08:26:27;-2.10;99.90
7388;DHT22;3735;50.136;11.062;2023-02-10T08:28:53;-2.10;99.90
7388;DHT22;3735;50.136;11.062;2023-02-10T08:31:20;-2.20;99.90
7388;DHT22;3735;50.136;11.062;2023-02-10T08:33:46;-2.10;99.90
7388;DHT22;3735;50.136;11.062;2023-02-10T08:36:15;-2.10;99.90
7388;DHT22;3735;50.136;11.062;2023-02-10T08:38:43;-2.00;99.90
7388;DHT22;3735;50.136;11.062;2023-02-10T08:41:09;-1.90;99.90
7388;DHT22;3735;50.136;11.062;2023-02-10T08:43:35;-1.80;99.90
7388;DHT22;3735;50.136;11.062;2023-02-10T08:46:01;-1.60;99.90
7388;DHT22;3735;50.136;11.062;2023-02-10T08:48:27;-1.50;99.90
7388;DHT22;3735;50.136;11.062;2023-02-10T08:50:53;-1.50;99.90
7388;DHT22;3735;50.136;11.062;2023-02-10T08:53:20;-1.40;99.90
7388;DHT22;3735;50.136;11.062;2023-02-10T08:56:01;-1.30;99.90
7388;DHT22;3735;50.136;11.062;2023-02-10T08:58:28;-1.20;99.90
7388;DHT22;3735;50.136;11.062;2023-02-10T09:00:54;-1.10;99.90
7388;DHT22;3735;50.136;11.062;2023-02-10T09:03:20;-1.20;99.90
7388;DHT22;3735;50.136;11.062;2023-02-10T09:05:47;-1.10;99.90
7388;DHT22;3735;50.136;11.062;2023-02-10T09:08:15;-1.00;99.90
7388;DHT22;3735;50.136;11.062;2023-02-10T09:10:43;-1.00;99.90
7388;DHT22;3735;50.136;11.062;2023-02-10T09:13:10;-1.00;99.90
7388;DHT22;3735;50.136;11.062;2023-02-10T09:15:40;-1.00;99.90
7388;DHT22;3735;50.136;11.062;2023-02-10T09:18:08;-0.90;99.90
7388;DHT22;3735;50.136;11.062;2023-02-10T09:20:35;-0.90;99.90
7388;DHT22;3735;50.136;11.062;2023-02-10T09:23:01;-0.80;99.90
7388;DHT22;3735;50.136;11.062;2023-02-10T09:25:27;-0.80;99.90
7388;DHT22;3735;50.136;11.062;2023-02-10T09:27:53;-0.70;99.90
7388;DHT22;3735;50.136;11.062;2023-02-10T09:30:21;-0.50;99.90
7388;DHT22;3735;50.136;11.062;2023-02-10T09:32:47;-0.40;99.90
7388;DHT22;3735;50.136;11.062;2023-02-10T09:35:13;-0.30;99.90
7388;DHT22;3735;50.136;11.062;2023-02-10T09:37:39;-0.20;99.90
7388;DHT22;3735;50.136;11.062;2023-02-10T09:40:05;0.00;99.90
7388;DHT22;3735;50.136;11.062;2023-02-10T09:45:22;0.20;99.90
7388;DHT22;3735;50.136;11.062;2023-02-10T09:48:17;0.50;99.90
7388;DHT22;3735;50.136;11.062;2023-02-10T09:53:41;0.90;99.90
7388;DHT22;3735;50.136;11.062;2023-02-10T09:56:17;1.00;99.90
7388;DHT22;3735;50.136;11.062;2023-02-10T09:58:53;1.20;99.90
7388;DHT22;3735;50.136;11.062;2023-02-10T10:06:36;1.50;99.90
7388;DHT22;3735;50.136;11.062;2023-02-10T10:12:03;1.70;99.90
7388;DHT22;3735;50.136;11.062;2023-02-10T10:14:35;1.70;99.90
7388;DHT22;3735;50.136;11.062;2023-02-10T10:25:56;1.90;99.90
7388;DHT22;3735;50.136;11.062;2023-02-10T10:34:09;1.70;99.90
7388;DHT22;3735;50.136;11.062;2023-02-10T10:36:48;1.70;99.90
7388;DHT22;3735;50.136;11.062;2023-02-10T10:39:38;1.90;99.90
7388;DHT22;3735;50.136;11.062;2023-02-10T10:44:54;2.10;99.90
7388;DHT22;3735;50.136;11.062;2023-02-10T10:48:09;2.00;99.90
7388;DHT22;3735;50.136;11.062;2023-02-10T10:50:41;2.00;99.90
7388;DHT22;3735;50.136;11.062;2023-02-10T10:53:38;1.90;99.90
7388;DHT22;3735;50.136;11.062;2023-02-10T10:56:45;2.00;99.90
7388;DHT22;3735;50.136;11.062;2023-02-10T10:59:46;1.90;99.90
7388;DHT22;3735;50.136;11.062;2023-02-10T11:02:55;1.90;99.90
7388;DHT22;3735;50.136;11.062;2023-02-10T11:05:33;1.80;99.90
7388;DHT22;3735;50.136;11.062;2023-02-10T11:08:05;1.70;99.90
7388;DHT22;3735;50.136;11.062;2023-02-10T11:10:36;1.70;99.90
7388;DHT22;3735;50.136;11.062;2023-02-10T11:13:23;1.70;99.90
7388;DHT22;3735;50.136;11.062;2023-02-10T11:16:11;1.60;99.90
7388;DHT22;3735;50.136;11.062;2023-02-10T11:19:00;1.70;99.90
7388;DHT22;3735;50.136;11.062;2023-02-10T11:21:37;1.90;99.90
7388;DHT22;3735;50.136;11.062;2023-02-10T11:24:20;2.00;99.90
7388;DHT22;3735;50.136;11.062;2023-02-10T11:26:59;2.10;99.90
7388;DHT22;3735;50.136;11.062;2023-02-10T11:29:26;2.30;99.90
7388;DHT22;3735;50.136;11.062;2023-02-10T11:31:55;2.30;99.90
7388;DHT22;3735;50.136;11.062;2023-02-10T11:34:32;2.20;99.90
7388;DHT22;3735;50.136;11.062;2023-02-10T11:37:12;2.10;99.90
7388;DHT22;3735;50.136;11.062;2023-02-10T11:39:45;2.10;99.90
7388;DHT22;3735;50.136;11.062;2023-02-10T11:42:18;2.10;99.90
7388;DHT22;3735;50.136;11.062;2023-02-10T11:47:31;2.40;99.90
7388;DHT22;3735;50.136;11.062;2023-02-10T11:49:58;2.40;99.90
7388;DHT22;3735;50.136;11.062;2023-02-10T11:52:26;2.50;99.90
7388;DHT22;3735;50.136;11.062;2023-02-10T11:54:56;2.40;99.90
7388;DHT22;3735;50.136;11.062;2023-02-10T12:00:37;2.50;99.90
7388;DHT22;3735;50.136;11.062;2023-02-10T12:09:17;2.40;99.90
7388;DHT22;3735;50.136;11.062;2023-02-10T12:12:29;2.40;99.90
7388;DHT22;3735;50.136;11.062;2023-02-10T12:15:45;2.40;99.90
7388;DHT22;3735;50.136;11.062;2023-02-10T12:34:07;2.90;99.90
7388;DHT22;3735;50.136;11.062;2023-02-10T12:45:32;2.80;99.90
7388;DHT22;3735;50.136;11.062;2023-02-10T12:48:16;2.70;99.90
7388;DHT22;3735;50.136;11.062;2023-02-10T12:51:26;2.80;99.90
7388;DHT22;3735;50.136;11.062;2023-02-10T12:57:00;2.90;99.90
7388;DHT22;3735;50.136;11.062;2023-02-10T12:59:43;2.90;99.90
7388;DHT22;3735;50.136;11.062;2023-02-10T13:02:20;2.90;99.90
7388;DHT22;3735;50.136;11.062;2023-02-10T13:04:56;3.00;99.90
7388;DHT22;3735;50.136;11.062;2023-02-10T13:07:48;3.10;99.90
7388;DHT22;3735;50.136;11.062;2023-02-10T13:10:48;3.20;99.90
7388;DHT22;3735;50.136;11.062;2023-02-10T13:13:22;3.40;99.90
7388;DHT22;3735;50.136;11.062;2023-02-10T13:21:43;3.90;99.90
7388;DHT22;3735;50.136;11.062;2023-02-10T13:24:24;4.00;99.90
7388;DHT22;3735;50.136;11.062;2023-02-10T13:36:10;3.70;99.90
7388;DHT22;3735;50.136;11.062;2023-02-10T13:38:40;3.60;99.90
7388;DHT22;3735;50.136;11.062;2023-02-10T13:41:26;3.40;99.90
7388;DHT22;3735;50.136;11.062;2023-02-10T13:44:18;3.30;99.90
7388;DHT22;3735;50.136;11.062;2023-02-10T13:49:58;3.10;99.90
7388;DHT22;3735;50.136;11.062;2023-02-10T13:52:30;3.00;99.90
7388;DHT22;3735;50.136;11.062;2023-02-10T13:57:35;2.80;99.90
7388;DHT22;3735;50.136;11.062;2023-02-10T14:02:44;2.60;99.90
7388;DHT22;3735;50.136;11.062;2023-02-10T14:05:30;2.60;99.90
7388;DHT22;3735;50.136;11.062;2023-02-10T14:07:58;2.50;99.90
7388;DHT22;3735;50.136;11.062;2023-02-10T14:10:29;2.50;99.90
7388;DHT22;3735;50.136;11.062;2023-02-10T14:13:21;2.50;99.90
7388;DHT22;3735;50.136;11.062;2023-02-10T14:15:59;2.50;99.90
7388;DHT22;3735;50.136;11.062;2023-02-10T14:18:37;2.50;99.90
7388;DHT22;3735;50.136;11.062;2023-02-10T14:21:15;2.40;99.90
7388;DHT22;3735;50.136;11.062;2023-02-10T14:23:50;2.40;99.90
7388;DHT22;3735;50.136;11.062;2023-02-10T14:26:21;2.40;99.90
7388;DHT22;3735;50.136;11.062;2023-02-10T14:28:53;2.40;99.90
7388;DHT22;3735;50.136;11.062;2023-02-10T14:31:27;2.40;99.90
7388;DHT22;3735;50.136;11.062;2023-02-10T14:33:59;2.40;99.90
7388;DHT22;3735;50.136;11.062;2023-02-10T14:36:27;2.50;99.90
7388;DHT22;3735;50.136;11.062;2023-02-10T14:38:55;2.40;99.90
7388;DHT22;3735;50.136;11.062;2023-02-10T14:41:31;2.50;99.90
7388;DHT22;3735;50.136;11.062;2023-02-10T14:43:58;2.50;99.90
7388;DHT22;3735;50.136;11.062;2023-02-10T14:46:27;2.50;99.90
7388;DHT22;3735;50.136;11.062;2023-02-10T14:49:07;2.50;99.90
7388;DHT22;3735;50.136;11.062;2023-02-10T14:51:45;2.50;99.90
7388;DHT22;3735;50.136;11.062;2023-02-10T14:54:18;2.50;99.90
7388;DHT22;3735;50.136;11.062;2023-02-10T14:56:58;2.30;99.90
7388;DHT22;3735;50.136;11.062;2023-02-10T14:59:30;2.30;99.90
7388;DHT22;3735;50.136;11.062;2023-02-10T15:02:04;2.30;99.90
7388;DHT22;3735;50.136;11.062;2023-02-10T15:04:44;2.30;99.90
7388;DHT22;3735;50.136;11.062;2023-02-10T15:07:18;2.30;99.90
7388;DHT22;3735;50.136;11.062;2023-02-10T15:09:47;2.30;99.90
7388;DHT22;3735;50.136;11.062;2023-02-10T15:12:15;2.30;99.90
7388;DHT22;3735;50.136;11.062;2023-02-10T15:17:40;2.30;99.90
7388;DHT22;3735;50.136;11.062;2023-02-10T15:22:43;2.30;99.90
7388;DHT22;3735;50.136;11.062;2023-02-10T15:33:21;2.30;99.90
7388;DHT22;3735;50.136;11.062;2023-02-10T15:35:54;2.30;99.90
7388;DHT22;3735;50.136;11.062;2023-02-10T15:38:28;2.20;99.90
7388;DHT22;3735;50.136;11.062;2023-02-10T15:40:55;2.00;99.90
7388;DHT22;3735;50.136;11.062;2023-02-10T15:43:26;1.80;99.90
7388;DHT22;3735;50.136;11.062;2023-02-10T15:46:16;1.70;99.90
7388;DHT22;3735;50.136;11.062;2023-02-10T15:48:42;1.40;99.90
7388;DHT22;3735;50.136;11.062;2023-02-10T15:51:22;1.30;99.90
7388;DHT22;3735;50.136;11.062;2023-02-10T15:53:53;1.10;99.90
7388;DHT22;3735;50.136;11.062;2023-02-10T15:56:22;1.00;99.90
7388;DHT22;3735;50.136;11.062;2023-02-10T15:58:52;0.90;99.90
7388;DHT22;3735;50.136;11.062;2023-02-10T16:01:20;0.80;99.90
7388;DHT22;3735;50.136;11.062;2023-02-10T16:03:46;0.70;99.90
7388;DHT22;3735;50.136;11.062;2023-02-10T16:06:16;0.60;99.90
7388;DHT22;3735;50.136;11.062;2023-02-10T16:08:44;0.40;99.90
7388;DHT22;3735;50.136;11.062;2023-02-10T16:11:11;0.30;99.90
7388;DHT22;3735;50.136;11.062;2023-02-10T16:13:37;0.20;99.90
7388;DHT22;3735;50.136;11.062;2023-02-10T16:16:05;0.00;99.90
7388;DHT22;3735;50.136;11.062;2023-02-10T16:18:39;-0.20;99.90
7388;DHT22;3735;50.136;11.062;2023-02-10T16:21:05;-0.50;99.90
7388;DHT22;3735;50.136;11.062;2023-02-10T16:23:31;-0.60;99.90
7388;DHT22;3735;50.136;11.062;2023-02-10T16:25:57;-0.70;99.90
7388;DHT22;3735;50.136;11.062;2023-02-10T16:28:24;-0.90;99.90
7388;DHT22;3735;50.136;11.062;2023-02-10T16:30:50;-1.00;99.90
7388;DHT22;3735;50.136;11.062;2023-02-10T16:33:16;-1.20;99.90
7388;DHT22;3735;50.136;11.062;2023-02-10T16:35:42;-1.30;99.90
7388;DHT22;3735;50.136;11.062;2023-02-10T16:38:09;-1.30;99.90
7388;DHT22;3735;50.136;11.062;2023-02-10T16:40:36;-1.30;99.90
7388;DHT22;3735;50.136;11.062;2023-02-10T16:43:05;-1.20;99.90
7388;DHT22;3735;50.136;11.062;2023-02-10T16:45:33;-1.10;99.90
7388;DHT22;3735;50.136;11.062;2023-02-10T16:48:00;-1.10;99.90
7388;DHT22;3735;50.136;11.062;2023-02-10T16:50:33;-1.10;99.90
7388;DHT22;3735;50.136;11.062;2023-02-10T16:53:00;-1.10;99.90
7388;DHT22;3735;50.136;11.062;2023-02-10T16:55:27;-1.10;99.90
7388;DHT22;3735;50.136;11.062;2023-02-10T16:57:53;-1.20;99.90
7388;DHT22;3735;50.136;11.062;2023-02-10T17:00:20;-1.20;99.90
7388;DHT22;3735;50.136;11.062;2023-02-10T17:02:47;-1.20;99.90
7388;DHT22;3735;50.136;11.062;2023-02-10T17:05:13;-1.30;99.90
7388;DHT22;3735;50.136;11.062;2023-02-10T17:07:39;-1.20;99.90
7388;DHT22;3735;50.136;11.062;2023-02-10T17:10:08;-1.10;99.90
7388;DHT22;3735;50.136;11.062;2023-02-10T17:12:38;-1.10;99.90
7388;DHT22;3735;50.136;11.062;2023-02-10T17:15:04;-1.10;99.90
7388;DHT22;3735;50.136;11.062;2023-02-10T17:17:30;-1.10;99.90
7388;DHT22;3735;50.136;11.062;2023-02-10T17:19:56;-1.00;99.90
7388;DHT22;3735;50.136;11.062;2023-02-10T17:22:24;-1.00;99.90
7388;DHT22;3735;50.136;11.062;2023-02-10T17:24:50;-1.00;99.90
7388;DHT22;3735;50.136;11.062;2023-02-10T17:27:16;-0.90;99.90
7388;DHT22;3735;50.136;11.062;2023-02-10T17:29:42;-0.80;99.90
7388;DHT22;3735;50.136;11.062;2023-02-10T17:32:08;-0.80;99.90
7388;DHT22;3735;50.136;11.062;2023-02-10T17:34:34;-0.70;99.90
7388;DHT22;3735;50.136;11.062;2023-02-10T17:37:01;-0.70;99.90
7388;DHT22;3735;50.136;11.062;2023-02-10T17:39:33;-0.70;99.90
7388;DHT22;3735;50.136;11.062;2023-02-10T17:42:05;-0.70;99.90
7388;DHT22;3735;50.136;11.062;2023-02-10T17:44:31;-0.80;99.90
7388;DHT22;3735;50.136;11.062;2023-02-10T17:46:58;-0.80;99.90
7388;DHT22;3735;50.136;11.062;2023-02-10T17:49:27;-0.80;99.90
7388;DHT22;3735;50.136;11.062;2023-02-10T17:51:55;-0.80;99.90
7388;DHT22;3735;50.136;11.062;2023-02-10T17:54:22;-0.80;99.90
7388;DHT22;3735;50.136;11.062;2023-02-10T17:56:48;-0.90;99.90
7388;DHT22;3735;50.136;11.062;2023-02-10T17:59:14;-1.00;99.90
7388;DHT22;3735;50.136;11.062;2023-02-10T18:01:41;-1.00;99.90
7388;DHT22;3735;50.136;11.062;2023-02-10T18:04:09;-1.10;99.90
7388;DHT22;3735;50.136;11.062;2023-02-10T18:06:37;-1.10;99.90
7388;DHT22;3735;50.136;11.062;2023-02-10T18:09:03;-1.00;99.90
7388;DHT22;3735;50.136;11.062;2023-02-10T18:11:29;-1.00;99.90
7388;DHT22;3735;50.136;11.062;2023-02-10T18:13:57;-1.00;99.90
7388;DHT22;3735;50.136;11.062;2023-02-10T18:16:24;-1.00;99.90
7388;DHT22;3735;50.136;11.062;2023-02-10T18:18:50;-1.00;99.90
7388;DHT22;3735;50.136;11.062;2023-02-10T18:21:18;-1.10;99.90
7388;DHT22;3735;50.136;11.062;2023-02-10T18:23:45;-1.10;99.90